createdAt,value
2019-05-17T00:00:04.716Z,973.11
2019-05-17T00:01:07.660Z,973.14
2019-05-17T00:02:07.357Z,973.11
2019-05-17T00:03:07.265Z,973.26
2019-05-17T00:04:07.478Z,973.06
2019-05-17T00:05:07.192Z,973.09
2019-05-17T00:06:07.160Z,973.03
2019-05-17T00:07:06.956Z,973.20
2019-05-17T00:08:04.483Z,972.89
2019-05-17T00:09:06.620Z,972.95
2019-05-17T00:10:07.165Z,973.14
2019-05-17T00:11:07.029Z,972.86
2019-05-17T00:12:09.839Z,973.00
2019-05-17T00:13:10.957Z,973.00
2019-05-17T00:14:06.649Z,972.83
2019-05-17T00:15:06.928Z,973.09
2019-05-17T00:16:07.516Z,973.03
2019-05-17T00:17:07.074Z,973.06
2019-05-17T00:18:06.970Z,972.92
2019-05-17T00:19:04.626Z,973.06
2019-05-17T00:20:06.696Z,973.03
2019-05-17T00:21:07.933Z,972.89
2019-05-17T00:22:07.112Z,972.95
2019-05-17T00:23:07.517Z,972.97
2019-05-17T00:24:07.096Z,972.92
2019-05-17T00:25:07.629Z,972.95
2019-05-17T00:26:07.538Z,972.97
2019-05-17T00:27:07.080Z,972.83
2019-05-17T00:28:07.032Z,972.89
2019-05-17T00:29:07.202Z,972.97
2019-05-17T00:30:06.922Z,972.86
2019-05-17T00:31:06.852Z,972.72
2019-05-17T00:32:06.736Z,972.77
2019-05-17T00:33:08.155Z,972.80
2019-05-17T00:34:07.116Z,972.83
2019-05-17T00:35:07.644Z,972.86
2019-05-17T00:36:07.394Z,972.75
2019-05-17T00:37:07.459Z,972.69
2019-05-17T00:38:07.027Z,972.69
2019-05-17T00:39:04.581Z,972.72
2019-05-17T00:40:07.656Z,972.72
2019-05-17T00:41:07.378Z,972.72
2019-05-17T00:42:07.419Z,972.66
2019-05-17T00:43:07.241Z,972.69
2019-05-17T00:44:06.697Z,972.66
2019-05-17T00:45:07.143Z,972.69
2019-05-17T00:46:09.835Z,972.75
2019-05-17T00:47:06.990Z,972.64
2019-05-17T00:48:06.868Z,972.55
2019-05-17T00:49:06.781Z,972.64
2019-05-17T00:50:06.834Z,972.64
2019-05-17T00:51:10.782Z,972.69
2019-05-17T00:52:04.449Z,972.64
2019-05-17T00:53:07.728Z,972.67
2019-05-17T00:54:07.193Z,972.72
2019-05-17T00:55:07.031Z,972.75
2019-05-17T00:56:06.976Z,972.69
2019-05-17T00:57:04.663Z,972.61
2019-05-17T00:58:07.246Z,972.69
2019-05-17T00:59:04.764Z,972.66
2019-05-17T01:00:05.368Z,972.58
2019-05-17T01:01:07.863Z,972.61
2019-05-17T01:02:07.378Z,972.58
2019-05-17T01:03:07.394Z,972.42
2019-05-17T01:04:07.090Z,972.55
2019-05-17T01:05:06.769Z,972.39
2019-05-17T01:06:10.371Z,972.36
2019-05-17T01:07:07.237Z,972.39
2019-05-17T01:08:07.561Z,972.48
2019-05-17T01:09:08.060Z,972.61
2019-05-17T01:10:06.918Z,972.39
2019-05-17T01:11:07.399Z,972.42
2019-05-17T01:12:07.379Z,972.39
2019-05-17T01:13:07.259Z,972.39
2019-05-17T01:14:07.174Z,972.42
2019-05-17T01:15:04.835Z,972.42
2019-05-17T01:16:07.759Z,972.34
2019-05-17T01:17:07.554Z,972.39
2019-05-17T01:18:07.645Z,972.22
2019-05-17T01:19:07.254Z,972.42
2019-05-17T01:20:07.165Z,972.31
2019-05-17T01:21:06.805Z,972.31
2019-05-17T01:22:07.769Z,972.42
2019-05-17T01:23:04.550Z,972.39
2019-05-17T01:24:07.078Z,972.36
2019-05-17T01:25:06.721Z,972.36
2019-05-17T01:26:07.745Z,972.45
2019-05-17T01:27:06.931Z,972.25
2019-05-17T01:28:06.915Z,972.34
2019-05-17T01:29:06.970Z,972.34
2019-05-17T01:30:07.074Z,972.25
2019-05-17T01:31:07.101Z,972.25
2019-05-17T01:32:07.008Z,972.45
2019-05-17T01:33:07.021Z,972.28
2019-05-17T01:34:07.117Z,972.17
2019-05-17T01:35:07.678Z,972.20
2019-05-17T01:36:07.307Z,972.45
2019-05-17T01:37:06.868Z,972.28
2019-05-17T01:38:07.035Z,972.20
2019-05-17T01:39:20.524Z,972.31
2019-05-17T01:40:07.101Z,972.28
2019-05-17T01:41:06.827Z,972.11
2019-05-17T01:42:07.134Z,972.17
2019-05-17T01:43:04.658Z,972.11
2019-05-17T01:44:10.211Z,972.17
2019-05-17T01:45:04.516Z,972.28
2019-05-17T01:46:07.124Z,972.14
2019-05-17T01:47:07.193Z,972.05
2019-05-17T01:48:07.657Z,972.08
2019-05-17T01:49:07.312Z,972.17
2019-05-17T01:50:07.122Z,972.20
2019-05-17T01:51:07.297Z,972.11
2019-05-17T01:52:04.701Z,972.17
2019-05-17T01:53:07.652Z,972.08
2019-05-17T01:54:07.243Z,972.20
2019-05-17T01:55:06.992Z,972.17
2019-05-17T01:56:06.772Z,972.11
2019-05-17T01:57:07.593Z,972.11
2019-05-17T01:58:07.768Z,972.03
2019-05-17T01:59:07.228Z,972.17
2019-05-17T02:00:06.770Z,972.11
2019-05-17T02:01:07.910Z,972.17
2019-05-17T02:02:07.449Z,972.06
2019-05-17T02:03:07.540Z,972.09
2019-05-17T02:04:07.058Z,972.20
2019-05-17T02:05:06.844Z,972.20
2019-05-17T02:06:07.936Z,972.06
2019-05-17T02:07:07.268Z,972.06
2019-05-17T02:08:07.108Z,972.11
2019-05-17T02:09:06.723Z,972.09
2019-05-17T02:10:07.302Z,972.09
2019-05-17T02:11:07.242Z,972.06
2019-05-17T02:12:07.023Z,972.09
2019-05-17T02:13:07.088Z,972.14
2019-05-17T02:14:07.195Z,972.00
2019-05-17T02:15:07.278Z,972.17
2019-05-17T02:16:07.488Z,972.15
2019-05-17T02:17:07.223Z,972.03
2019-05-17T02:18:07.349Z,972.06
2019-05-17T02:19:07.017Z,971.95
2019-05-17T02:20:06.875Z,972.03
2019-05-17T02:21:06.922Z,972.01
2019-05-17T02:22:07.722Z,971.95
2019-05-17T02:23:07.717Z,971.98
2019-05-17T02:24:08.214Z,971.89
2019-05-17T02:25:04.499Z,972.03
2019-05-17T02:26:07.040Z,971.98
2019-05-17T02:27:04.774Z,971.86
2019-05-17T02:28:05.416Z,971.89
2019-05-17T02:29:04.499Z,972.01
2019-05-17T02:30:04.483Z,971.95
2019-05-17T02:31:04.913Z,972.03
2019-05-17T02:32:05.206Z,972.01
2019-05-17T02:33:04.953Z,972.12
2019-05-17T02:34:04.616Z,971.95
2019-05-17T02:35:04.469Z,972.01
2019-05-17T02:36:05.094Z,971.98
2019-05-17T02:37:05.135Z,971.89
2019-05-17T02:38:04.746Z,972.03
2019-05-17T02:39:04.840Z,971.95
2019-05-17T02:40:08.844Z,971.98
2019-05-17T02:41:05.407Z,972.06
2019-05-17T02:42:04.564Z,971.92
2019-05-17T02:43:05.165Z,971.92
2019-05-17T02:44:13.353Z,972.01
2019-05-17T02:45:04.690Z,971.86
2019-05-17T02:46:05.233Z,971.95
2019-05-17T02:47:05.323Z,971.82
2019-05-17T02:48:04.758Z,971.89
2019-05-17T02:49:04.911Z,971.79
2019-05-17T02:50:06.063Z,971.95
2019-05-17T02:51:05.035Z,971.95
2019-05-17T02:52:05.549Z,971.89
2019-05-17T02:53:05.233Z,971.82
2019-05-17T02:54:05.066Z,971.82
2019-05-17T02:55:04.937Z,971.95
2019-05-17T02:56:05.010Z,971.84
2019-05-17T02:57:04.637Z,971.87
2019-05-17T02:58:04.834Z,971.82
2019-05-17T02:59:05.114Z,971.89
2019-05-17T03:00:05.254Z,971.79
2019-05-17T03:01:05.087Z,971.98
2019-05-17T03:02:04.705Z,971.84
2019-05-17T03:03:04.717Z,971.87
2019-05-17T03:04:04.672Z,971.92
2019-05-17T03:05:04.826Z,971.84
2019-05-17T03:06:05.104Z,971.87
2019-05-17T03:07:04.556Z,971.95
2019-05-17T03:08:05.140Z,971.79
2019-05-17T03:09:04.785Z,971.90
2019-05-17T03:10:28.274Z,971.82
2019-05-17T03:11:05.321Z,971.90
2019-05-17T03:12:05.178Z,971.96
2019-05-17T03:13:05.218Z,971.82
2019-05-17T03:14:04.909Z,971.87
2019-05-17T03:15:05.247Z,971.87
2019-05-17T03:16:05.369Z,971.87
2019-05-17T03:17:05.312Z,971.87
2019-05-17T03:18:04.987Z,971.87
2019-05-17T03:19:05.159Z,971.93
2019-05-17T03:20:05.019Z,971.71
2019-05-17T03:21:05.111Z,971.77
2019-05-17T03:22:08.263Z,971.87
2019-05-17T03:23:04.856Z,971.87
2019-05-17T03:24:04.920Z,971.96
2019-05-17T03:25:05.258Z,971.85
2019-05-17T03:26:05.370Z,971.87
2019-05-17T03:27:05.417Z,971.77
2019-05-17T03:28:05.578Z,971.83
2019-05-17T03:29:04.815Z,971.75
2019-05-17T03:30:05.121Z,971.85
2019-05-17T03:31:09.332Z,971.83
2019-05-17T03:32:11.135Z,971.78
2019-05-17T03:33:08.513Z,971.88
2019-05-17T03:34:07.526Z,971.83
2019-05-17T03:35:08.056Z,971.85
2019-05-17T03:36:07.531Z,971.99
2019-05-17T03:37:07.793Z,971.78
2019-05-17T03:38:04.975Z,971.88
2019-05-17T03:39:04.551Z,971.85
2019-05-17T03:40:56.366Z,971.78
2019-05-17T03:41:23.098Z,971.81
2019-05-17T03:42:05.077Z,971.83
2019-05-17T03:43:04.683Z,971.81
2019-05-17T03:44:05.252Z,971.88
2019-05-17T03:45:05.246Z,971.72
2019-05-17T03:46:04.814Z,971.85
2019-05-17T03:47:04.794Z,971.75
2019-05-17T03:48:05.731Z,971.88
2019-05-17T03:49:05.448Z,971.75
2019-05-17T03:50:05.009Z,971.78
2019-05-17T03:51:05.263Z,971.88
2019-05-17T03:52:05.331Z,971.88
2019-05-17T03:53:04.938Z,971.83
2019-05-17T03:54:05.055Z,971.75
2019-05-17T03:55:05.162Z,971.85
2019-05-17T03:56:04.658Z,971.94
2019-05-17T03:57:05.089Z,971.99
2019-05-17T03:58:05.369Z,971.94
2019-05-17T03:59:05.495Z,971.75
2019-05-17T04:00:04.744Z,971.91
2019-05-17T04:01:05.333Z,971.83
2019-05-17T04:02:04.710Z,971.94
2019-05-17T04:03:04.681Z,971.85
2019-05-17T04:04:04.906Z,971.83
2019-05-17T04:05:05.080Z,971.91
2019-05-17T04:06:04.994Z,971.91
2019-05-17T04:07:05.152Z,971.91
2019-05-17T04:08:05.463Z,971.88
2019-05-17T04:09:04.975Z,971.85
2019-05-17T04:10:05.244Z,971.80
2019-05-17T04:11:31.282Z,972.02
2019-05-17T04:12:05.613Z,971.93
2019-05-17T04:13:05.034Z,971.83
2019-05-17T04:14:05.451Z,971.99
2019-05-17T04:15:04.596Z,971.90
2019-05-17T04:16:12.917Z,971.96
2019-05-17T04:17:05.264Z,971.93
2019-05-17T04:18:05.112Z,971.99
2019-05-17T04:19:05.044Z,971.96
2019-05-17T04:20:05.367Z,971.87
2019-05-17T04:21:04.912Z,972.01
2019-05-17T04:22:05.052Z,971.99
2019-05-17T04:23:05.018Z,971.98
2019-05-17T04:24:05.251Z,971.93
2019-05-17T04:25:05.990Z,972.04
2019-05-17T04:26:05.580Z,971.93
2019-05-17T04:27:05.132Z,972.15
2019-05-17T04:28:05.509Z,971.98
2019-05-17T04:29:04.710Z,972.04
2019-05-17T04:30:05.543Z,972.01
2019-05-17T04:31:05.109Z,972.04
2019-05-17T04:32:05.019Z,972.04
2019-05-17T04:33:05.040Z,971.98
2019-05-17T04:34:05.193Z,972.09
2019-05-17T04:35:04.981Z,972.18
2019-05-17T04:36:05.039Z,972.01
2019-05-17T04:37:05.006Z,971.98
2019-05-17T04:38:05.036Z,972.09
2019-05-17T04:39:05.168Z,972.09
2019-05-17T04:40:05.334Z,971.89
2019-05-17T04:41:04.887Z,972.09
2019-05-17T04:42:04.901Z,971.98
2019-05-17T04:43:05.465Z,972.03
2019-05-17T04:44:04.828Z,971.95
2019-05-17T04:45:13.197Z,971.92
2019-05-17T04:46:04.711Z,971.94
2019-05-17T04:47:05.177Z,971.97
2019-05-17T04:48:05.173Z,972.03
2019-05-17T04:49:05.300Z,971.97
2019-05-17T04:50:04.799Z,972.05
2019-05-17T04:51:04.792Z,972.00
2019-05-17T04:52:05.287Z,971.97
2019-05-17T04:53:04.804Z,971.99
2019-05-17T04:54:04.721Z,972.11
2019-05-17T04:55:04.827Z,972.08
2019-05-17T04:56:04.627Z,972.02
2019-05-17T04:57:05.162Z,972.10
2019-05-17T04:58:05.364Z,971.91
2019-05-17T04:59:05.439Z,972.13
2019-05-17T05:00:04.943Z,972.05
2019-05-17T05:01:04.909Z,972.10
2019-05-17T05:02:05.224Z,972.02
2019-05-17T05:03:04.996Z,971.90
2019-05-17T05:04:05.492Z,972.07
2019-05-17T05:05:14.019Z,971.87
2019-05-17T05:06:04.591Z,971.93
2019-05-17T05:07:05.012Z,971.90
2019-05-17T05:08:05.461Z,971.96
2019-05-17T05:09:04.703Z,971.98
2019-05-17T05:10:05.017Z,971.84
2019-05-17T05:11:05.181Z,972.07
2019-05-17T05:12:06.843Z,972.01
2019-05-17T05:13:05.515Z,971.95
2019-05-17T05:14:04.995Z,971.98
2019-05-17T05:15:05.121Z,971.92
2019-05-17T05:16:05.004Z,971.92
2019-05-17T05:17:05.321Z,971.89
2019-05-17T05:18:05.337Z,971.89
2019-05-17T05:19:04.690Z,972.14
2019-05-17T05:20:05.395Z,971.92
2019-05-17T05:21:05.113Z,972.03
2019-05-17T05:22:05.279Z,972.09
2019-05-17T05:23:04.702Z,972.08
2019-05-17T05:24:04.989Z,971.91
2019-05-17T05:25:04.467Z,971.94
2019-05-17T05:26:04.703Z,972.11
2019-05-17T05:27:04.774Z,972.11
2019-05-17T05:28:05.028Z,971.97
2019-05-17T05:29:05.320Z,971.97
2019-05-17T05:30:05.054Z,972.05
2019-05-17T05:31:05.260Z,971.94
2019-05-17T05:32:05.280Z,972.13
2019-05-17T05:33:05.344Z,971.85
2019-05-17T05:34:05.415Z,971.96
2019-05-17T05:35:05.053Z,971.83
2019-05-17T05:36:05.242Z,971.96
2019-05-17T05:37:04.787Z,971.99
2019-05-17T05:38:05.080Z,971.96
2019-05-17T05:39:05.341Z,971.93
2019-05-17T05:40:05.395Z,971.90
2019-05-17T05:41:04.669Z,972.04
2019-05-17T05:42:13.790Z,971.84
2019-05-17T05:43:04.658Z,971.96
2019-05-17T05:44:12.530Z,971.98
2019-05-17T05:45:05.050Z,971.87
2019-05-17T05:46:05.177Z,971.90
2019-05-17T05:47:05.165Z,971.90
2019-05-17T05:48:05.494Z,971.92
2019-05-17T05:49:05.495Z,971.82
2019-05-17T05:50:04.858Z,971.82
2019-05-17T05:51:06.079Z,971.95
2019-05-17T05:52:04.987Z,971.89
2019-05-17T05:53:05.073Z,971.95
2019-05-17T05:54:05.162Z,971.92
2019-05-17T05:55:05.551Z,971.92
2019-05-17T05:56:04.546Z,971.79
2019-05-17T05:57:04.837Z,971.97
2019-05-17T05:58:05.072Z,971.83
2019-05-17T05:59:05.036Z,971.91
2019-05-17T06:00:05.027Z,971.78
2019-05-17T06:01:05.213Z,971.91
2019-05-17T06:02:05.209Z,971.78
2019-05-17T06:03:04.641Z,971.83
2019-05-17T06:04:04.897Z,971.83
2019-05-17T06:05:05.250Z,971.85
2019-05-17T06:06:04.909Z,971.85
2019-05-17T06:07:05.206Z,971.88
2019-05-17T06:08:04.661Z,971.80
2019-05-17T06:09:05.270Z,972.02
2019-05-17T06:10:05.422Z,971.88
2019-05-17T06:11:05.059Z,971.80
2019-05-17T06:12:05.333Z,971.83
2019-05-17T06:13:04.617Z,971.85
2019-05-17T06:14:05.485Z,971.90
2019-05-17T06:15:04.487Z,971.90
2019-05-17T06:16:04.516Z,971.84
2019-05-17T06:17:05.163Z,971.93
2019-05-17T06:18:05.282Z,971.87
2019-05-17T06:19:05.262Z,971.79
2019-05-17T06:20:05.028Z,971.84
2019-05-17T06:21:04.816Z,971.79
2019-05-17T06:22:05.241Z,971.92
2019-05-17T06:23:04.462Z,971.82
2019-05-17T06:24:04.920Z,971.86
2019-05-17T06:25:05.011Z,971.78
2019-05-17T06:26:05.172Z,971.73
2019-05-17T06:27:05.296Z,971.78
2019-05-17T06:28:04.811Z,971.85
2019-05-17T06:29:04.901Z,971.75
2019-05-17T06:30:05.076Z,971.80
2019-05-17T06:31:05.130Z,971.66
2019-05-17T06:32:05.055Z,971.72
2019-05-17T06:33:04.705Z,971.87
2019-05-17T06:34:04.708Z,971.84
2019-05-17T06:35:05.195Z,971.96
2019-05-17T06:36:05.409Z,971.90
2019-05-17T06:37:04.542Z,971.79
2019-05-17T06:38:04.587Z,971.79
2019-05-17T06:39:04.541Z,971.82
2019-05-17T06:40:04.707Z,971.86
2019-05-17T06:41:05.017Z,971.86
2019-05-17T06:42:04.600Z,971.89
2019-05-17T06:43:05.936Z,971.81
2019-05-17T06:44:11.995Z,971.75
2019-05-17T06:45:05.395Z,971.75
2019-05-17T06:46:04.944Z,971.72
2019-05-17T06:47:05.192Z,971.85
2019-05-17T06:48:05.074Z,971.85
2019-05-17T06:49:05.367Z,971.85
2019-05-17T06:50:04.615Z,971.83
2019-05-17T06:51:05.200Z,971.87
2019-05-17T06:52:04.680Z,971.95
2019-05-17T06:53:04.788Z,971.82
2019-05-17T06:54:05.346Z,971.84
2019-05-17T06:55:06.293Z,971.62
2019-05-17T06:56:04.872Z,971.73
2019-05-17T06:57:05.027Z,971.75
2019-05-17T06:58:04.649Z,971.83
2019-05-17T06:59:04.747Z,971.81
2019-05-17T07:00:19.181Z,971.78
2019-05-17T07:01:05.388Z,971.74
2019-05-17T07:02:05.685Z,971.77
2019-05-17T07:03:04.810Z,971.80
2019-05-17T07:04:10.677Z,971.80
2019-05-17T07:05:05.287Z,971.87
2019-05-17T07:06:04.709Z,971.77
2019-05-17T07:07:04.689Z,971.79
2019-05-17T07:08:05.454Z,971.68
2019-05-17T07:09:04.673Z,971.79
2019-05-17T07:10:04.703Z,971.76
2019-05-17T07:11:05.546Z,971.76
2019-05-17T07:12:05.028Z,971.89
2019-05-17T07:13:05.383Z,971.86
2019-05-17T07:14:05.461Z,971.85
2019-05-17T07:15:05.467Z,971.78
2019-05-17T07:16:04.660Z,971.88
2019-05-17T07:17:04.836Z,971.99
2019-05-17T07:18:04.927Z,971.80
2019-05-17T07:19:05.269Z,971.80
2019-05-17T07:20:05.185Z,971.83
2019-05-17T07:21:05.370Z,971.77
2019-05-17T07:22:04.870Z,971.82
2019-05-17T07:23:05.268Z,971.65
2019-05-17T07:24:05.339Z,971.90
2019-05-17T07:25:04.490Z,971.79
2019-05-17T07:26:04.655Z,971.98
2019-05-17T07:27:04.705Z,971.76
2019-05-17T07:28:04.806Z,971.73
2019-05-17T07:29:04.787Z,971.73
2019-05-17T07:30:04.771Z,971.81
2019-05-17T07:31:04.899Z,971.78
2019-05-17T07:32:04.982Z,971.75
2019-05-17T07:33:04.998Z,971.75
2019-05-17T07:34:05.081Z,971.66
2019-05-17T07:35:05.202Z,971.80
2019-05-17T07:36:04.538Z,971.72
2019-05-17T07:37:05.118Z,971.91
2019-05-17T07:38:05.256Z,971.83
2019-05-17T07:39:04.750Z,971.72
2019-05-17T07:40:05.629Z,971.80
2019-05-17T07:41:05.348Z,971.82
2019-05-17T07:42:05.373Z,971.87
2019-05-17T07:43:14.639Z,971.87
2019-05-17T07:44:04.481Z,971.77
2019-05-17T07:45:04.741Z,971.90
2019-05-17T07:46:04.984Z,971.84
2019-05-17T07:47:05.085Z,971.73
2019-05-17T07:48:05.437Z,971.82
2019-05-17T07:49:04.594Z,971.84
2019-05-17T07:50:05.048Z,971.76
2019-05-17T07:51:04.930Z,971.76
2019-05-17T07:52:04.813Z,971.86
2019-05-17T07:53:10.791Z,971.73
2019-05-17T07:54:05.115Z,971.83
2019-05-17T07:55:05.387Z,971.61
2019-05-17T07:56:05.471Z,971.83
2019-05-17T07:57:04.484Z,971.85
2019-05-17T07:58:04.546Z,971.77
2019-05-17T07:59:04.900Z,971.68
2019-05-17T08:00:04.843Z,971.74
2019-05-17T08:01:04.536Z,971.68
2019-05-17T08:02:04.934Z,971.76
2019-05-17T08:03:04.999Z,971.68
2019-05-17T08:04:05.219Z,971.68
2019-05-17T08:05:04.893Z,971.62
2019-05-17T08:06:04.985Z,971.64
2019-05-17T08:07:05.218Z,971.70
2019-05-17T08:08:04.810Z,971.67
2019-05-17T08:09:05.106Z,971.70
2019-05-17T08:10:04.935Z,971.64
2019-05-17T08:11:05.479Z,971.78
2019-05-17T08:12:04.787Z,971.81
2019-05-17T08:13:04.641Z,971.67
2019-05-17T08:14:04.932Z,971.66
2019-05-17T08:15:05.348Z,971.72
2019-05-17T08:16:05.423Z,971.63
2019-05-17T08:17:04.800Z,971.60
2019-05-17T08:18:05.194Z,971.51
2019-05-17T08:19:05.293Z,971.63
2019-05-17T08:20:05.299Z,971.77
2019-05-17T08:21:05.188Z,971.48
2019-05-17T08:22:05.405Z,971.65
2019-05-17T08:23:05.644Z,971.42
2019-05-17T08:24:05.427Z,971.48
2019-05-17T08:25:05.190Z,971.36
2019-05-17T08:26:04.815Z,971.47
2019-05-17T08:27:04.702Z,971.41
2019-05-17T08:28:05.073Z,971.50
2019-05-17T08:29:05.341Z,971.50
2019-05-17T08:30:05.455Z,971.35
2019-05-17T08:31:05.181Z,971.40
2019-05-17T08:32:04.872Z,971.40
2019-05-17T08:33:04.802Z,971.34
2019-05-17T08:34:05.048Z,971.49
2019-05-17T08:35:05.396Z,971.43
2019-05-17T08:36:05.256Z,971.51
2019-05-17T08:37:05.310Z,971.46
2019-05-17T08:38:05.320Z,971.43
2019-05-17T08:39:04.573Z,971.40
2019-05-17T08:40:05.162Z,971.48
2019-05-17T08:41:04.982Z,971.37
2019-05-17T08:42:05.207Z,971.45
2019-05-17T08:43:05.226Z,971.40
2019-05-17T08:44:04.687Z,971.34
2019-05-17T08:45:04.915Z,971.23
2019-05-17T08:46:04.958Z,971.46
2019-05-17T08:47:05.180Z,971.29
2019-05-17T08:48:05.040Z,971.23
2019-05-17T08:49:04.518Z,971.34
2019-05-17T08:50:04.779Z,971.20
2019-05-17T08:51:05.184Z,971.26
2019-05-17T08:52:05.408Z,971.32
2019-05-17T08:53:05.357Z,971.14
2019-05-17T08:54:04.747Z,971.26
2019-05-17T08:55:05.505Z,971.23
2019-05-17T08:56:05.419Z,971.29
2019-05-17T08:57:04.847Z,971.29
2019-05-17T08:58:05.007Z,971.31
2019-05-17T08:59:05.197Z,971.20
2019-05-17T09:00:04.472Z,971.29
2019-05-17T09:01:11.591Z,971.31
2019-05-17T09:02:04.891Z,971.29
2019-05-17T09:03:05.045Z,971.32
2019-05-17T09:04:04.612Z,971.26
2019-05-17T09:05:04.589Z,971.29
2019-05-17T09:06:04.897Z,971.29
2019-05-17T09:07:05.162Z,971.29
2019-05-17T09:08:05.398Z,971.32
2019-05-17T09:09:05.526Z,971.37
2019-05-17T09:10:04.612Z,971.29
2019-05-17T09:11:04.651Z,971.26
2019-05-17T09:12:04.882Z,971.26
2019-05-17T09:13:04.850Z,971.23
2019-05-17T09:14:05.096Z,971.37
2019-05-17T09:15:05.161Z,971.26
2019-05-17T09:16:05.110Z,971.12
2019-05-17T09:17:04.508Z,971.23
2019-05-17T09:18:05.006Z,971.26
2019-05-17T09:19:04.848Z,971.14
2019-05-17T09:20:04.901Z,971.15
2019-05-17T09:21:10.187Z,971.20
2019-05-17T09:22:04.531Z,971.17
2019-05-17T09:23:05.153Z,971.32
2019-05-17T09:24:05.498Z,971.29
2019-05-17T09:25:04.635Z,971.15
2019-05-17T09:26:04.626Z,971.26
2019-05-17T09:27:05.001Z,971.15
2019-05-17T09:28:04.796Z,971.20
2019-05-17T09:29:05.010Z,971.17
2019-05-17T09:30:05.047Z,971.17
2019-05-17T09:31:05.247Z,971.17
2019-05-17T09:32:04.666Z,971.14
2019-05-17T09:33:04.619Z,971.09
2019-05-17T09:34:04.903Z,971.08
2019-05-17T09:35:05.127Z,971.08
2019-05-17T09:36:05.366Z,971.17
2019-05-17T09:37:05.356Z,971.17
2019-05-17T09:38:05.538Z,971.08
2019-05-17T09:39:04.531Z,970.96
2019-05-17T09:40:04.709Z,971.05
2019-05-17T09:41:05.243Z,971.08
2019-05-17T09:42:05.262Z,971.04
2019-05-17T09:43:04.729Z,971.16
2019-05-17T09:44:16.058Z,971.15
2019-05-17T09:45:05.152Z,971.12
2019-05-17T09:46:05.384Z,971.09
2019-05-17T09:47:05.531Z,971.03
2019-05-17T09:48:04.524Z,970.97
2019-05-17T09:49:04.658Z,971.03
2019-05-17T09:50:04.784Z,971.08
2019-05-17T09:51:04.894Z,971.11
2019-05-17T09:52:05.011Z,971.05
2019-05-17T09:53:05.218Z,971.13
2019-05-17T09:54:04.857Z,971.02
2019-05-17T09:55:05.197Z,971.02
2019-05-17T09:56:04.961Z,971.01
2019-05-17T09:57:05.115Z,970.98
2019-05-17T09:58:04.853Z,970.98
2019-05-17T09:59:04.962Z,971.06
2019-05-17T10:00:04.976Z,970.86
2019-05-17T10:01:05.381Z,970.98
2019-05-17T10:02:05.311Z,970.98
2019-05-17T10:03:04.562Z,970.95
2019-05-17T10:04:13.969Z,970.89
2019-05-17T10:05:05.471Z,970.83
2019-05-17T10:06:04.701Z,970.89
2019-05-17T10:07:05.022Z,970.86
2019-05-17T10:08:04.990Z,970.84
2019-05-17T10:09:05.285Z,970.87
2019-05-17T10:10:05.175Z,970.98
2019-05-17T10:11:11.832Z,970.87
2019-05-17T10:12:04.911Z,970.87
2019-05-17T10:13:05.333Z,970.96
2019-05-17T10:14:04.622Z,970.93
2019-05-17T10:15:04.852Z,970.93
2019-05-17T10:16:05.234Z,970.91
2019-05-17T10:17:05.243Z,971.02
2019-05-17T10:18:04.734Z,970.83
2019-05-17T10:19:05.069Z,970.88
2019-05-17T10:20:05.195Z,970.77
2019-05-17T10:21:04.644Z,971.03
2019-05-17T10:22:04.728Z,970.88
2019-05-17T10:23:04.797Z,971.00
2019-05-17T10:24:05.315Z,970.80
2019-05-17T10:25:05.262Z,970.83
2019-05-17T10:26:04.554Z,970.98
2019-05-17T10:27:04.844Z,970.83
2019-05-17T10:28:05.421Z,970.92
2019-05-17T10:29:04.925Z,970.92
2019-05-17T10:30:04.923Z,971.03
2019-05-17T10:31:05.022Z,970.95
2019-05-17T10:32:05.415Z,970.95
2019-05-17T10:33:04.744Z,970.83
2019-05-17T10:34:05.026Z,970.83
2019-05-17T10:35:05.146Z,970.92
2019-05-17T10:36:05.153Z,971.00
2019-05-17T10:37:04.857Z,970.88
2019-05-17T10:38:04.939Z,970.85
2019-05-17T10:39:05.179Z,970.91
2019-05-17T10:40:05.313Z,970.76
2019-05-17T10:41:05.484Z,970.96
2019-05-17T10:42:04.683Z,970.84
2019-05-17T10:43:04.905Z,970.79
2019-05-17T10:44:05.001Z,970.93
2019-05-17T10:45:05.122Z,970.81
2019-05-17T10:46:04.823Z,970.81
2019-05-17T10:47:05.187Z,970.78
2019-05-17T10:48:05.189Z,970.75
2019-05-17T10:49:05.423Z,970.80
2019-05-17T10:50:04.606Z,970.80
2019-05-17T10:51:05.306Z,970.85
2019-05-17T10:52:04.873Z,970.68
2019-05-17T10:53:04.836Z,970.76
2019-05-17T10:54:05.132Z,970.76
2019-05-17T10:55:05.239Z,970.78
2019-05-17T10:56:05.324Z,970.67
2019-05-17T10:57:05.328Z,970.78
2019-05-17T10:58:05.536Z,970.92
2019-05-17T10:59:05.054Z,970.89
2019-05-17T11:00:05.202Z,970.77
2019-05-17T11:01:04.994Z,970.71
2019-05-17T11:02:05.178Z,970.77
2019-05-17T11:03:05.445Z,970.79
2019-05-17T11:04:04.520Z,970.62
2019-05-17T11:05:04.703Z,970.65
2019-05-17T11:06:05.138Z,970.67
2019-05-17T11:07:04.859Z,970.64
2019-05-17T11:08:05.478Z,970.72
2019-05-17T11:09:04.557Z,970.66
2019-05-17T11:10:05.012Z,970.66
2019-05-17T11:11:05.072Z,970.69
2019-05-17T11:12:05.074Z,970.63
2019-05-17T11:13:05.162Z,970.63
2019-05-17T11:14:04.527Z,970.54
2019-05-17T11:15:12.071Z,970.54
2019-05-17T11:16:05.026Z,970.62
2019-05-17T11:17:05.485Z,970.53
2019-05-17T11:18:09.627Z,970.47
2019-05-17T11:19:04.966Z,970.62
2019-05-17T11:20:05.342Z,970.53
2019-05-17T11:21:05.002Z,970.53
2019-05-17T11:22:05.377Z,970.58
2019-05-17T11:23:05.482Z,970.64
2019-05-17T11:24:04.880Z,970.55
2019-05-17T11:25:05.059Z,970.55
2019-05-17T11:26:04.985Z,970.61
2019-05-17T11:27:05.708Z,970.64
2019-05-17T11:28:05.089Z,970.64
2019-05-17T11:29:05.413Z,970.55
2019-05-17T11:30:04.758Z,970.64
2019-05-17T11:31:04.772Z,970.61
2019-05-17T11:32:05.179Z,970.49
2019-05-17T11:33:04.506Z,970.61
2019-05-17T11:34:04.605Z,970.61
2019-05-17T11:35:04.694Z,970.55
2019-05-17T11:36:05.135Z,970.44
2019-05-17T11:37:05.431Z,970.61
2019-05-17T11:38:04.554Z,970.66
2019-05-17T11:39:04.656Z,970.69
2019-05-17T11:40:08.608Z,970.58
2019-05-17T11:41:21.850Z,970.61
2019-05-17T11:42:04.490Z,970.69
2019-05-17T11:43:05.084Z,970.61
2019-05-17T11:44:04.768Z,970.64
2019-05-17T11:45:04.929Z,970.64
2019-05-17T11:46:04.832Z,970.58
2019-05-17T11:47:04.949Z,970.66
2019-05-17T11:48:05.602Z,970.61
2019-05-17T11:49:04.591Z,970.55
2019-05-17T11:50:04.845Z,970.55
2019-05-17T11:51:05.270Z,970.60
2019-05-17T11:52:10.354Z,970.57
2019-05-17T11:53:04.713Z,970.60
2019-05-17T11:54:05.332Z,970.68
2019-05-17T11:55:04.569Z,970.60
2019-05-17T11:56:04.680Z,970.60
2019-05-17T11:57:04.667Z,970.57
2019-05-17T11:58:05.093Z,970.59
2019-05-17T11:59:05.327Z,970.59
2019-05-17T12:00:04.714Z,970.53
2019-05-17T12:01:05.494Z,970.56
2019-05-17T12:02:04.854Z,970.45
2019-05-17T12:03:04.929Z,970.45
2019-05-17T12:04:05.179Z,970.67
2019-05-17T12:05:05.248Z,970.56
2019-05-17T12:06:04.618Z,970.59
2019-05-17T12:07:05.143Z,970.44
2019-05-17T12:08:04.530Z,970.50
2019-05-17T12:09:04.737Z,970.58
2019-05-17T12:10:05.710Z,970.50
2019-05-17T12:11:04.985Z,970.61
2019-05-17T12:12:10.474Z,970.49
2019-05-17T12:13:04.998Z,970.55
2019-05-17T12:14:04.563Z,970.49
2019-05-17T12:15:05.090Z,970.52
2019-05-17T12:16:04.831Z,970.55
2019-05-17T12:17:05.043Z,970.49
2019-05-17T12:18:05.560Z,970.52
2019-05-17T12:19:04.879Z,970.35
2019-05-17T12:20:05.063Z,970.51
2019-05-17T12:21:04.873Z,970.41
2019-05-17T12:22:05.581Z,970.41
2019-05-17T12:23:04.803Z,970.38
2019-05-17T12:24:05.644Z,970.51
2019-05-17T12:25:04.962Z,970.48
2019-05-17T12:26:05.336Z,970.42
2019-05-17T12:27:05.418Z,970.40
2019-05-17T12:28:04.976Z,970.48